sensor_id;sensor_type;location;lat;lon;timestamp;pressure;altitude;pressure_sealevel;temperature;humidity
35878;BME280;21982;49.804;24.072;2023-04-24T00:02:19;96656.84;;;11.05;46.48
35878;BME280;21982;49.804;24.072;2023-04-24T00:04:44;96581.94;;;10.52;46.85
35878;BME280;21982;49.804;24.072;2023-04-24T00:07:10;96687.78;;;11.18;47.59
35878;BME280;21982;49.804;24.072;2023-04-24T00:09:36;96678.03;;;11.05;47.27
35878;BME280;21982;49.804;24.072;2023-04-24T00:12:01;96668.88;;;10.95;47.79
35878;BME280;21982;49.804;24.072;2023-04-24T00:14:30;96598.81;;;10.51;47.35
35878;BME280;21982;49.804;24.072;2023-04-24T00:16:55;96690.63;;;11.17;47.48
35878;BME280;21982;49.804;24.072;2023-04-24T00:19:21;96625.91;;;10.73;47.71
35878;BME280;21982;49.804;24.072;2023-04-24T00:21:47;96645.22;;;10.87;47.39
35878;BME280;21982;49.804;24.072;2023-04-24T00:24:15;96627.09;;;10.77;48.02
35878;BME280;21982;49.804;24.072;2023-04-24T00:26:41;96637.28;;;10.87;47.98
35878;BME280;21982;49.804;24.072;2023-04-24T00:31:41;96683.72;;;11.09;47.78
35878;BME280;21982;49.804;24.072;2023-04-24T00:34:07;96695.31;;;11.21;47.92
35878;BME280;21982;49.804;24.072;2023-04-24T00:36:32;96553.41;;;10.41;47.79
35878;BME280;21982;49.804;24.072;2023-04-24T00:38:58;96601.88;;;10.61;48.33
35878;BME280;21982;49.804;24.072;2023-04-24T00:41:24;96694.69;;;11.19;47.82
35878;BME280;21982;49.804;24.072;2023-04-24T00:43:51;96693.47;;;11.15;48.06
35878;BME280;21982;49.804;24.072;2023-04-24T00:46:16;96690.22;;;11.13;48.29
35878;BME280;21982;49.804;24.072;2023-04-24T00:48:43;96432.97;;;9.53;48.64
35878;BME280;21982;49.804;24.072;2023-04-24T00:51:09;96644.41;;;10.86;48.22
35878;BME280;21982;49.804;24.072;2023-04-24T00:53:34;96642.19;;;10.77;48.42
35878;BME280;21982;49.804;24.072;2023-04-24T00:56:00;96685.56;;;11.02;48.98
35878;BME280;21982;49.804;24.072;2023-04-24T00:58:26;96683.34;;;10.99;49.02
35878;BME280;21982;49.804;24.072;2023-04-24T01:00:53;96671.91;;;10.85;49.17
35878;BME280;21982;49.804;24.072;2023-04-24T01:03:22;96691.47;;;10.97;48.83
35878;BME280;21982;49.804;24.072;2023-04-24T01:05:50;96644.25;;;10.61;49.22
35878;BME280;21982;49.804;24.072;2023-04-24T01:08:16;96694.34;;;10.89;49.39
35878;BME280;21982;49.804;24.072;2023-04-24T01:10:43;96694.53;;;10.88;49.31
35878;BME280;21982;49.804;24.072;2023-04-24T01:13:10;96657.88;;;10.58;49.70
35878;BME280;21982;49.804;24.072;2023-04-24T01:15:36;96691.47;;;10.78;50.15
35878;BME280;21982;49.804;24.072;2023-04-24T01:18:01;96690.88;;;10.75;50.33
35878;BME280;21982;49.804;24.072;2023-04-24T01:20:27;96690.28;;;10.73;50.58
35878;BME280;21982;49.804;24.072;2023-04-24T01:22:56;96641.78;;;10.33;50.22
35878;BME280;21982;49.804;24.072;2023-04-24T01:25:23;96669.69;;;10.56;50.41
35878;BME280;21982;49.804;24.072;2023-04-24T01:27:49;96583.13;;;9.97;50.56
35878;BME280;21982;49.804;24.072;2023-04-24T01:30:15;96661.75;;;10.49;50.47
35878;BME280;21982;49.804;24.072;2023-04-24T01:32:41;96677.03;;;10.60;50.86
35878;BME280;21982;49.804;24.072;2023-04-24T01:35:10;96683.34;;;10.59;50.51
35878;BME280;21982;49.804;24.072;2023-04-24T01:37:36;96644.44;;;10.33;50.86
35878;BME280;21982;49.804;24.072;2023-04-24T01:40:07;96655.63;;;10.35;51.08
35878;BME280;21982;49.804;24.072;2023-04-24T01:42:34;96677.63;;;10.49;50.87
35878;BME280;21982;49.804;24.072;2023-04-24T01:45:00;96675.56;;;10.45;51.64
35878;BME280;21982;49.804;24.072;2023-04-24T01:47:27;96669.69;;;10.36;51.33
35878;BME280;21982;49.804;24.072;2023-04-24T01:49:53;96678.25;;;10.38;51.80
35878;BME280;21982;49.804;24.072;2023-04-24T01:52:19;96666.44;;;10.34;51.32
35878;BME280;21982;49.804;24.072;2023-04-24T01:54:44;96588.78;;;9.81;51.71
35878;BME280;21982;49.804;24.072;2023-04-24T01:57:10;96613.81;;;9.91;52.03
35878;BME280;21982;49.804;24.072;2023-04-24T01:59:35;96640.91;;;10.00;52.54
35878;BME280;21982;49.804;24.072;2023-04-24T02:02:02;96552.88;;;9.38;52.64
35878;BME280;21982;49.804;24.072;2023-04-24T02:04:28;96645.97;;;9.95;53.01
35878;BME280;21982;49.804;24.072;2023-04-24T02:06:54;96665.13;;;10.03;52.71
35878;BME280;21982;49.804;24.072;2023-04-24T02:09:19;96579.75;;;9.49;52.98
35878;BME280;21982;49.804;24.072;2023-04-24T02:11:45;96657.38;;;9.95;52.93
35878;BME280;21982;49.804;24.072;2023-04-24T02:14:10;96640.84;;;9.80;53.45
35878;BME280;21982;49.804;24.072;2023-04-24T02:16:35;96546.28;;;9.15;53.12
35878;BME280;21982;49.804;24.072;2023-04-24T02:19:02;96636.34;;;9.74;53.47
35878;BME280;21982;49.804;24.072;2023-04-24T02:21:27;96594.38;;;9.45;53.33
35878;BME280;21982;49.804;24.072;2023-04-24T02:23:53;96645.91;;;9.75;54.10
35878;BME280;21982;49.804;24.072;2023-04-24T02:26:18;96647.72;;;9.74;53.94
35878;BME280;21982;49.804;24.072;2023-04-24T02:28:44;96639.38;;;9.71;53.82
35878;BME280;21982;49.804;24.072;2023-04-24T02:31:09;96637.56;;;9.71;54.59
35878;BME280;21982;49.804;24.072;2023-04-24T02:33:35;96618.81;;;9.60;53.89
35878;BME280;21982;49.804;24.072;2023-04-24T02:36:01;96649.56;;;9.74;54.27
35878;BME280;21982;49.804;24.072;2023-04-24T02:38:27;96629.41;;;9.73;54.09
35878;BME280;21982;49.804;24.072;2023-04-24T02:40:52;96533.28;;;9.13;54.10
35878;BME280;21982;49.804;24.072;2023-04-24T02:43:18;96559.16;;;9.24;54.39
35878;BME280;21982;49.804;24.072;2023-04-24T02:45:43;96566.88;;;9.26;54.80
35878;BME280;21982;49.804;24.072;2023-04-24T02:48:08;96611.91;;;9.59;54.26
35878;BME280;21982;49.804;24.072;2023-04-24T02:50:34;96590.72;;;9.46;54.26
35878;BME280;21982;49.804;24.072;2023-04-24T02:52:59;96543.88;;;9.20;54.22
35878;BME280;21982;49.804;24.072;2023-04-24T02:55:25;96475.38;;;8.57;54.48
35878;BME280;21982;49.804;24.072;2023-04-24T02:57:50;96624.56;;;9.70;54.55
35878;BME280;21982;49.804;24.072;2023-04-24T03:00:16;96509.22;;;8.88;54.59
35878;BME280;21982;49.804;24.072;2023-04-24T03:02:41;96640.19;;;9.65;54.77
35878;BME280;21982;49.804;24.072;2023-04-24T03:05:07;96612.91;;;9.51;54.70
35878;BME280;21982;49.804;24.072;2023-04-24T03:07:32;96604.97;;;9.51;55.23
35878;BME280;21982;49.804;24.072;2023-04-24T03:09:58;96599.25;;;9.48;54.29
35878;BME280;21982;49.804;24.072;2023-04-24T03:12:24;96467.28;;;8.59;55.18
35878;BME280;21982;49.804;24.072;2023-04-24T03:14:50;96626.13;;;9.58;55.31
35878;BME280;21982;49.804;24.072;2023-04-24T03:17:15;96644.84;;;9.56;55.10
35878;BME280;21982;49.804;24.072;2023-04-24T03:19:40;96606.13;;;9.35;55.28
35878;BME280;21982;49.804;24.072;2023-04-24T03:22:06;96588.81;;;9.26;55.17
35878;BME280;21982;49.804;24.072;2023-04-24T03:24:31;96625.84;;;9.39;55.72
35878;BME280;21982;49.804;24.072;2023-04-24T03:26:57;96487.19;;;8.61;55.29
35878;BME280;21982;49.804;24.072;2023-04-24T03:29:22;96598.00;;;9.30;55.48
35878;BME280;21982;49.804;24.072;2023-04-24T03:31:48;96610.19;;;9.38;55.43
35878;BME280;21982;49.804;24.072;2023-04-24T03:34:13;96542.19;;;8.99;55.75
35878;BME280;21982;49.804;24.072;2023-04-24T03:36:39;96539.53;;;8.99;55.73
35878;BME280;21982;49.804;24.072;2023-04-24T03:39:04;96626.09;;;9.51;55.36
35878;BME280;21982;49.804;24.072;2023-04-24T03:41:30;96622.88;;;9.56;55.96
35878;BME280;21982;49.804;24.072;2023-04-24T03:43:56;96610.44;;;9.50;55.48
35878;BME280;21982;49.804;24.072;2023-04-24T03:46:21;96629.81;;;9.63;55.59
35878;BME280;21982;49.804;24.072;2023-04-24T03:48:46;96560.94;;;9.17;55.69
35878;BME280;21982;49.804;24.072;2023-04-24T03:51:12;96591.09;;;9.43;55.38
35878;BME280;21982;49.804;24.072;2023-04-24T03:53:37;96643.25;;;9.75;56.28
35878;BME280;21982;49.804;24.072;2023-04-24T03:56:03;96646.31;;;9.79;55.83
35878;BME280;21982;49.804;24.072;2023-04-24T03:58:28;96609.50;;;9.64;56.03
35878;BME280;21982;49.804;24.072;2023-04-24T04:00:53;96619.47;;;9.75;55.80
35878;BME280;21982;49.804;24.072;2023-04-24T04:03:19;96633.31;;;9.77;55.35
35878;BME280;21982;49.804;24.072;2023-04-24T04:05:44;96634.78;;;9.93;55.89
35878;BME280;21982;49.804;24.072;2023-04-24T04:08:10;96641.91;;;9.99;55.64
35878;BME280;21982;49.804;24.072;2023-04-24T04:10:35;96635.22;;;10.03;55.41
35878;BME280;21982;49.804;24.072;2023-04-24T04:13:00;96622.16;;;9.95;55.37
35878;BME280;21982;49.804;24.072;2023-04-24T04:15:26;96642.34;;;10.16;55.03
35878;BME280;21982;49.804;24.072;2023-04-24T04:17:52;96537.09;;;9.58;55.61
35878;BME280;21982;49.804;24.072;2023-04-24T04:20:18;96488.47;;;9.33;54.86
35878;BME280;21982;49.804;24.072;2023-04-24T04:22:43;96626.94;;;10.32;55.02
35878;BME280;21982;49.804;24.072;2023-04-24T04:25:09;96649.94;;;10.65;54.77
35878;BME280;21982;49.804;24.072;2023-04-24T04:27:35;96614.09;;;10.69;54.99
35878;BME280;21982;49.804;24.072;2023-04-24T04:30:02;96577.84;;;10.63;54.40
35878;BME280;21982;49.804;24.072;2023-04-24T04:32:30;96642.09;;;11.23;54.33
35878;BME280;21982;49.804;24.072;2023-04-24T04:34:57;96590.41;;;11.07;53.76
35878;BME280;21982;49.804;24.072;2023-04-24T04:37:22;96645.84;;;11.60;53.70
35878;BME280;21982;49.804;24.072;2023-04-24T04:39:47;96303.69;;;9.58;53.20
35878;BME280;21982;49.804;24.072;2023-04-24T04:42:13;96566.47;;;11.71;52.99
35878;BME280;21982;49.804;24.072;2023-04-24T04:44:38;96548.81;;;11.90;52.37
35878;BME280;21982;49.804;24.072;2023-04-24T04:47:05;96630.75;;;12.86;51.62
35878;BME280;21982;49.804;24.072;2023-04-24T04:49:31;96546.41;;;12.82;50.57
35878;BME280;21982;49.804;24.072;2023-04-24T04:51:57;96631.56;;;13.96;49.96
35878;BME280;21982;49.804;24.072;2023-04-24T04:54:22;96572.72;;;14.16;48.57
35878;BME280;21982;49.804;24.072;2023-04-24T04:56:50;96629.09;;;15.36;47.73
35878;BME280;21982;49.804;24.072;2023-04-24T04:59:15;96581.38;;;15.63;46.28
35878;BME280;21982;49.804;24.072;2023-04-24T05:01:41;96630.59;;;16.41;45.34
35878;BME280;21982;49.804;24.072;2023-04-24T05:04:06;96574.28;;;16.59;44.52
35878;BME280;21982;49.804;24.072;2023-04-24T05:06:32;96622.47;;;17.36;43.53
35878;BME280;21982;49.804;24.072;2023-04-24T05:08:57;96647.34;;;17.75;42.92
35878;BME280;21982;49.804;24.072;2023-04-24T05:11:25;96617.97;;;18.29;42.40
35878;BME280;21982;49.804;24.072;2023-04-24T05:13:51;96634.22;;;18.77;41.32
35878;BME280;21982;49.804;24.072;2023-04-24T05:16:16;96492.97;;;18.55;40.51
35878;BME280;21982;49.804;24.072;2023-04-24T05:18:42;96622.78;;;19.81;39.61
35878;BME280;21982;49.804;24.072;2023-04-24T05:21:07;96612.41;;;20.20;38.86
35878;BME280;21982;49.804;24.072;2023-04-24T05:23:32;96615.44;;;20.54;38.25
35878;BME280;21982;49.804;24.072;2023-04-24T05:25:59;96572.16;;;20.70;37.62
35878;BME280;21982;49.804;24.072;2023-04-24T05:28:25;96621.00;;;21.54;37.02
35878;BME280;21982;49.804;24.072;2023-04-24T05:30:54;96559.53;;;21.66;35.97
35878;BME280;21982;49.804;24.072;2023-04-24T05:33:21;96614.19;;;22.36;35.23
35878;BME280;21982;49.804;24.072;2023-04-24T05:35:47;96601.09;;;22.53;35.01
35878;BME280;21982;49.804;24.072;2023-04-24T05:38:14;96609.09;;;22.68;34.83
35878;BME280;21982;49.804;24.072;2023-04-24T05:40:43;96620.38;;;22.76;34.92
35878;BME280;21982;49.804;24.072;2023-04-24T05:43:09;96616.06;;;22.80;34.42
35878;BME280;21982;49.804;24.072;2023-04-24T05:45:34;96621.75;;;22.78;34.59
35878;BME280;21982;49.804;24.072;2023-04-24T05:48:01;96545.09;;;22.40;34.26
35878;BME280;21982;49.804;24.072;2023-04-24T05:50:27;96573.03;;;22.54;34.08
35878;BME280;21982;49.804;24.072;2023-04-24T05:52:53;96613.59;;;23.12;33.91
35878;BME280;21982;49.804;24.072;2023-04-24T05:55:18;96625.63;;;23.78;33.31
35878;BME280;21982;49.804;24.072;2023-04-24T05:57:44;96537.41;;;23.63;32.93
35878;BME280;21982;49.804;24.072;2023-04-24T06:00:09;96573.56;;;24.10;32.54
35878;BME280;21982;49.804;24.072;2023-04-24T06:02:37;96583.09;;;24.45;31.92
35878;BME280;21982;49.804;24.072;2023-04-24T06:05:03;96607.41;;;24.63;31.50
35878;BME280;21982;49.804;24.072;2023-04-24T06:07:32;96622.34;;;24.80;31.43
35878;BME280;21982;49.804;24.072;2023-04-24T06:09:59;96623.66;;;24.82;31.43
35878;BME280;21982;49.804;24.072;2023-04-24T06:12:25;96619.81;;;25.02;30.90
35878;BME280;21982;49.804;24.072;2023-04-24T06:14:51;96573.34;;;24.95;30.67
35878;BME280;21982;49.804;24.072;2023-04-24T06:17:16;96613.25;;;25.35;30.37
35878;BME280;21982;49.804;24.072;2023-04-24T06:19:42;96608.19;;;25.61;30.11
35878;BME280;21982;49.804;24.072;2023-04-24T06:22:07;96597.53;;;25.65;29.46
35878;BME280;21982;49.804;24.072;2023-04-24T06:24:33;96602.56;;;25.85;29.08
35878;BME280;21982;49.804;24.072;2023-04-24T06:26:59;96612.38;;;26.09;28.71
35878;BME280;21982;49.804;24.072;2023-04-24T06:29:26;96619.19;;;26.20;28.65
35878;BME280;21982;49.804;24.072;2023-04-24T06:31:52;96545.03;;;26.11;28.27
35878;BME280;21982;49.804;24.072;2023-04-24T06:34:17;96610.88;;;26.66;27.64
35878;BME280;21982;49.804;24.072;2023-04-24T06:36:43;96570.28;;;26.47;27.70
35878;BME280;21982;49.804;24.072;2023-04-24T06:39:08;96533.69;;;26.45;27.24
35878;BME280;21982;49.804;24.072;2023-04-24T06:41:35;96610.41;;;27.17;26.92
35878;BME280;21982;49.804;24.072;2023-04-24T06:44:00;96609.06;;;27.28;26.58
35878;BME280;21982;49.804;24.072;2023-04-24T06:46:27;96612.63;;;27.77;26.15
35878;BME280;21982;49.804;24.072;2023-04-24T06:48:55;96547.72;;;28.01;25.22
35878;BME280;21982;49.804;24.072;2023-04-24T06:51:25;96565.31;;;28.13;24.97
35878;BME280;21982;49.804;24.072;2023-04-24T06:53:53;96607.19;;;28.68;24.93
35878;BME280;21982;49.804;24.072;2023-04-24T06:56:20;96599.66;;;28.48;24.37
35878;BME280;21982;49.804;24.072;2023-04-24T06:58:45;96590.53;;;28.27;24.26
35878;BME280;21982;49.804;24.072;2023-04-24T07:01:11;96552.03;;;28.20;24.41
35878;BME280;21982;49.804;24.072;2023-04-24T07:03:37;96539.94;;;28.34;24.08
35878;BME280;21982;49.804;24.072;2023-04-24T07:06:02;96564.06;;;28.79;23.94
35878;BME280;21982;49.804;24.072;2023-04-24T07:08:28;96608.63;;;29.09;24.05
35878;BME280;21982;49.804;24.072;2023-04-24T07:10:55;96605.91;;;29.09;23.26
35878;BME280;21982;49.804;24.072;2023-04-24T07:13:21;96584.59;;;29.02;23.43
35878;BME280;21982;49.804;24.072;2023-04-24T07:15:47;96599.63;;;29.73;22.93
35878;BME280;21982;49.804;24.072;2023-04-24T07:18:15;96518.03;;;29.04;22.99
35878;BME280;21982;49.804;24.072;2023-04-24T07:20:40;96600.88;;;29.28;23.02
35878;BME280;21982;49.804;24.072;2023-04-24T07:23:06;96577.66;;;29.14;23.32
35878;BME280;21982;49.804;24.072;2023-04-24T07:25:31;96589.28;;;29.49;22.98
35878;BME280;21982;49.804;24.072;2023-04-24T07:27:57;96464.03;;;28.88;22.74
35878;BME280;21982;49.804;24.072;2023-04-24T07:30:22;96591.38;;;29.81;22.64
35878;BME280;21982;49.804;24.072;2023-04-24T07:32:48;96500.13;;;29.41;22.47
35878;BME280;21982;49.804;24.072;2023-04-24T07:35:15;96588.97;;;30.39;22.05
35878;BME280;21982;49.804;24.072;2023-04-24T07:37:40;96592.44;;;30.69;21.70
35878;BME280;21982;49.804;24.072;2023-04-24T07:40:11;96588.66;;;30.52;22.15
35878;BME280;21982;49.804;24.072;2023-04-24T07:42:37;96490.75;;;29.50;22.37
35878;BME280;21982;49.804;24.072;2023-04-24T07:45:03;96563.78;;;30.12;22.68
35878;BME280;21982;49.804;24.072;2023-04-24T07:47:29;96584.81;;;30.53;21.73
35878;BME280;21982;49.804;24.072;2023-04-24T07:49:55;96579.69;;;30.31;21.91
35878;BME280;21982;49.804;24.072;2023-04-24T07:52:20;96510.75;;;30.34;21.43
35878;BME280;21982;49.804;24.072;2023-04-24T07:54:45;96590.25;;;30.95;21.33
35878;BME280;21982;49.804;24.072;2023-04-24T07:57:11;96567.63;;;30.74;21.49
35878;BME280;21982;49.804;24.072;2023-04-24T07:59:36;96511.81;;;30.21;21.13
35878;BME280;21982;49.804;24.072;2023-04-24T08:02:02;96576.81;;;30.27;21.61
35878;BME280;21982;49.804;24.072;2023-04-24T08:04:27;96490.13;;;29.74;21.67
35878;BME280;21982;49.804;24.072;2023-04-24T08:06:53;96531.00;;;30.12;21.71
35878;BME280;21982;49.804;24.072;2023-04-24T08:09:18;96561.50;;;30.35;21.82
35878;BME280;21982;49.804;24.072;2023-04-24T08:11:43;96559.25;;;30.37;21.77
35878;BME280;21982;49.804;24.072;2023-04-24T08:14:09;96579.31;;;30.95;21.71
35878;BME280;21982;49.804;24.072;2023-04-24T08:16:35;96581.94;;;31.24;20.95
35878;BME280;21982;49.804;24.072;2023-04-24T08:19:00;96549.25;;;30.95;21.06
35878;BME280;21982;49.804;24.072;2023-04-24T08:21:26;96573.72;;;30.91;21.22
35878;BME280;21982;49.804;24.072;2023-04-24T08:23:52;96574.97;;;30.94;21.41
35878;BME280;21982;49.804;24.072;2023-04-24T08:26:17;96579.97;;;30.80;21.01
35878;BME280;21982;49.804;24.072;2023-04-24T08:28:43;96487.97;;;30.30;21.04
35878;BME280;21982;49.804;24.072;2023-04-24T08:31:09;96529.50;;;30.89;20.67
35878;BME280;21982;49.804;24.072;2023-04-24T08:33:34;96460.13;;;30.16;20.69
35878;BME280;21982;49.804;24.072;2023-04-24T08:36:02;96466.94;;;30.63;20.36
35878;BME280;21982;49.804;24.072;2023-04-24T08:38:28;96517.47;;;31.03;20.01
35878;BME280;21982;49.804;24.072;2023-04-24T08:40:54;96562.41;;;31.71;20.20
35878;BME280;21982;49.804;24.072;2023-04-24T08:43:21;96557.13;;;32.03;19.66
35878;BME280;21982;49.804;24.072;2023-04-24T08:45:47;96527.00;;;31.90;19.78
35878;BME280;21982;49.804;24.072;2023-04-24T08:48:12;96562.28;;;32.56;19.17
35878;BME280;21982;49.804;24.072;2023-04-24T08:50:38;96534.81;;;32.69;18.72
35878;BME280;21982;49.804;24.072;2023-04-24T08:53:07;96550.34;;;32.64;18.37
35878;BME280;21982;49.804;24.072;2023-04-24T08:55:33;96561.28;;;32.49;19.03
35878;BME280;21982;49.804;24.072;2023-04-24T08:58:00;96554.38;;;32.15;18.49
35878;BME280;21982;49.804;24.072;2023-04-24T09:00:26;96557.94;;;32.03;18.96
35878;BME280;21982;49.804;24.072;2023-04-24T09:02:53;96532.72;;;32.22;18.28
35878;BME280;21982;49.804;24.072;2023-04-24T09:05:20;96543.03;;;32.69;18.23
35878;BME280;21982;49.804;24.072;2023-04-24T09:07:53;96537.84;;;33.07;18.16
35878;BME280;21982;49.804;24.072;2023-04-24T09:10:20;96511.81;;;32.85;17.63
35878;BME280;21982;49.804;24.072;2023-04-24T09:12:46;96534.69;;;33.21;17.73
35878;BME280;21982;49.804;24.072;2023-04-24T09:15:12;96536.97;;;33.19;17.72
35878;BME280;21982;49.804;24.072;2023-04-24T09:17:37;96464.56;;;32.48;17.79
35878;BME280;21982;49.804;24.072;2023-04-24T09:20:04;96465.00;;;31.70;18.15
35878;BME280;21982;49.804;24.072;2023-04-24T09:22:32;96535.63;;;32.29;17.97
35878;BME280;21982;49.804;24.072;2023-04-24T09:25:05;96508.88;;;32.94;17.64
35878;BME280;21982;49.804;24.072;2023-04-24T09:27:33;96502.41;;;32.58;16.99
35878;BME280;21982;49.804;24.072;2023-04-24T09:29:59;96525.44;;;32.70;17.15
35878;BME280;21982;49.804;24.072;2023-04-24T09:32:25;96484.28;;;32.82;17.47
35878;BME280;21982;49.804;24.072;2023-04-24T09:35:11;96518.50;;;32.32;17.25
35878;BME280;21982;49.804;24.072;2023-04-24T09:37:38;96433.75;;;29.78;18.32
35878;BME280;21982;49.804;24.072;2023-04-24T09:42:33;96495.69;;;28.20;19.88
35878;BME280;21982;49.804;24.072;2023-04-24T09:44:59;96498.50;;;29.40;19.42
35878;BME280;21982;49.804;24.072;2023-04-24T09:47:25;96492.88;;;30.57;19.05
35878;BME280;21982;49.804;24.072;2023-04-24T09:49:57;96500.88;;;31.93;18.31
35878;BME280;21982;49.804;24.072;2023-04-24T09:52:23;96496.31;;;32.49;17.67
35878;BME280;21982;49.804;24.072;2023-04-24T09:54:53;96446.22;;;32.37;17.88
35878;BME280;21982;49.804;24.072;2023-04-24T09:57:19;96480.81;;;32.41;17.20
35878;BME280;21982;49.804;24.072;2023-04-24T09:59:46;96418.22;;;32.15;17.78
35878;BME280;21982;49.804;24.072;2023-04-24T10:02:20;96432.47;;;32.21;16.88
35878;BME280;21982;49.804;24.072;2023-04-24T10:04:56;96485.97;;;32.86;17.88
35878;BME280;21982;49.804;24.072;2023-04-24T10:07:26;96476.56;;;32.04;17.70
35878;BME280;21982;49.804;24.072;2023-04-24T10:09:51;96432.16;;;29.77;18.72
35878;BME280;21982;49.804;24.072;2023-04-24T10:12:17;96434.19;;;28.11;19.90
35878;BME280;21982;49.804;24.072;2023-04-24T10:14:43;96445.19;;;27.54;20.35
35878;BME280;21982;49.804;24.072;2023-04-24T10:17:10;96411.63;;;27.58;19.49
35878;BME280;21982;49.804;24.072;2023-04-24T10:19:37;96445.88;;;29.10;19.25
35878;BME280;21982;49.804;24.072;2023-04-24T10:22:03;96417.00;;;30.54;18.00
35878;BME280;21982;49.804;24.072;2023-04-24T10:24:29;96436.66;;;31.90;16.99
35878;BME280;21982;49.804;24.072;2023-04-24T10:26:55;96445.72;;;32.75;16.86
35878;BME280;21982;49.804;24.072;2023-04-24T10:29:21;96404.81;;;32.70;16.44
35878;BME280;21982;49.804;24.072;2023-04-24T10:31:47;96405.13;;;32.80;16.53
35878;BME280;21982;49.804;24.072;2023-04-24T10:34:14;96442.19;;;32.90;16.53
35878;BME280;21982;49.804;24.072;2023-04-24T10:36:44;96457.69;;;33.29;16.02
35878;BME280;21982;49.804;24.072;2023-04-24T10:39:12;96425.22;;;33.67;15.61
35878;BME280;21982;49.804;24.072;2023-04-24T10:41:40;96409.44;;;34.18;15.38
35878;BME280;21982;49.804;24.072;2023-04-24T10:44:16;96454.44;;;35.13;14.79
35878;BME280;21982;49.804;24.072;2023-04-24T10:46:46;96459.03;;;34.06;14.67
35878;BME280;21982;49.804;24.072;2023-04-24T10:49:14;96400.03;;;32.67;15.64
35878;BME280;21982;49.804;24.072;2023-04-24T10:52:03;96451.56;;;32.89;16.23
35878;BME280;21982;49.804;24.072;2023-04-24T10:54:41;96449.19;;;32.04;16.22
35878;BME280;21982;49.804;24.072;2023-04-24T10:59:44;96388.53;;;29.48;17.42
35878;BME280;21982;49.804;24.072;2023-04-24T11:02:09;96442.06;;;28.38;18.13
35878;BME280;21982;49.804;24.072;2023-04-24T11:04:35;96454.22;;;26.84;20.93
35878;BME280;21982;49.804;24.072;2023-04-24T11:07:03;96454.16;;;26.44;21.06
35878;BME280;21982;49.804;24.072;2023-04-24T11:09:31;96427.59;;;26.94;20.59
35878;BME280;21982;49.804;24.072;2023-04-24T11:12:08;96449.56;;;27.89;20.05
35878;BME280;21982;49.804;24.072;2023-04-24T11:23:08;96384.84;;;26.78;20.79
35878;BME280;21982;49.804;24.072;2023-04-24T11:25:35;96295.03;;;26.65;20.49
35878;BME280;21982;49.804;24.072;2023-04-24T11:28:05;96441.00;;;28.68;19.55
35878;BME280;21982;49.804;24.072;2023-04-24T11:30:32;96444.41;;;29.71;19.07
35878;BME280;21982;49.804;24.072;2023-04-24T11:33:03;96366.72;;;29.48;18.54
35878;BME280;21982;49.804;24.072;2023-04-24T11:35:29;96349.22;;;29.49;18.69
35878;BME280;21982;49.804;24.072;2023-04-24T11:37:55;96418.78;;;30.38;18.40
35878;BME280;21982;49.804;24.072;2023-04-24T11:40:22;96185.31;;;29.21;18.14
35878;BME280;21982;49.804;24.072;2023-04-24T11:42:52;96399.63;;;30.26;18.18
35878;BME280;21982;49.804;24.072;2023-04-24T11:45:20;96360.13;;;30.11;18.44
35878;BME280;21982;49.804;24.072;2023-04-24T11:47:46;96361.97;;;29.36;18.46
35878;BME280;21982;49.804;24.072;2023-04-24T11:50:14;96384.06;;;28.12;18.91
35878;BME280;21982;49.804;24.072;2023-04-24T11:52:41;96427.16;;;27.84;19.80
35878;BME280;21982;49.804;24.072;2023-04-24T11:55:12;96345.69;;;27.87;19.47
35878;BME280;21982;49.804;24.072;2023-04-24T11:57:54;96356.72;;;27.56;19.74
35878;BME280;21982;49.804;24.072;2023-04-24T12:00:42;96359.06;;;26.58;20.21
35878;BME280;21982;49.804;24.072;2023-04-24T12:03:11;96410.91;;;27.18;20.04
35878;BME280;21982;49.804;24.072;2023-04-24T12:05:37;96399.75;;;28.15;19.57
35878;BME280;21982;49.804;24.072;2023-04-24T12:08:03;96363.78;;;28.00;19.71
35878;BME280;21982;49.804;24.072;2023-04-24T12:10:33;96352.44;;;27.81;19.66
35878;BME280;21982;49.804;24.072;2023-04-24T12:12:59;96185.63;;;26.17;20.01
35878;BME280;21982;49.804;24.072;2023-04-24T12:15:26;96044.84;;;25.10;19.99
35878;BME280;21982;49.804;24.072;2023-04-24T12:17:53;96324.06;;;26.96;19.18
35878;BME280;21982;49.804;24.072;2023-04-24T12:20:26;96394.19;;;27.77;19.44
35878;BME280;21982;49.804;24.072;2023-04-24T12:22:56;96383.13;;;28.16;19.12
35878;BME280;21982;49.804;24.072;2023-04-24T12:25:24;96387.00;;;28.71;17.84
35878;BME280;21982;49.804;24.072;2023-04-24T12:30:30;96385.28;;;29.96;17.23
35878;BME280;21982;49.804;24.072;2023-04-24T12:32:57;96342.28;;;29.93;16.38
35878;BME280;21982;49.804;24.072;2023-04-24T12:35:25;96340.78;;;29.62;16.29
35878;BME280;21982;49.804;24.072;2023-04-24T12:37:51;96276.00;;;28.88;16.35
35878;BME280;21982;49.804;24.072;2023-04-24T12:40:17;96361.81;;;30.16;15.66
35878;BME280;21982;49.804;24.072;2023-04-24T12:42:45;96360.00;;;30.08;15.15
35878;BME280;21982;49.804;24.072;2023-04-24T12:45:11;96284.53;;;28.87;16.08
35878;BME280;21982;49.804;24.072;2023-04-24T12:47:38;96325.66;;;28.64;16.33
35878;BME280;21982;49.804;24.072;2023-04-24T12:50:04;96313.91;;;28.73;16.42
35878;BME280;21982;49.804;24.072;2023-04-24T12:52:30;96283.41;;;28.50;15.81
35878;BME280;21982;49.804;24.072;2023-04-24T12:54:57;96274.13;;;28.04;15.34
35878;BME280;21982;49.804;24.072;2023-04-24T12:57:24;96319.63;;;28.42;15.45
35878;BME280;21982;49.804;24.072;2023-04-24T12:59:52;96330.50;;;28.88;15.60
35878;BME280;21982;49.804;24.072;2023-04-24T13:02:17;96328.00;;;29.33;15.11
35878;BME280;21982;49.804;24.072;2023-04-24T13:04:46;96328.94;;;29.58;14.58
35878;BME280;21982;49.804;24.072;2023-04-24T13:07:16;96292.66;;;29.16;14.26
35878;BME280;21982;49.804;24.072;2023-04-24T13:09:43;96233.50;;;28.37;15.12